Time;durP1;ratioP1;P1;durP2;ratioP2;P2;SDS_P1;SDS_P2;PMS_P1;PMS_P2;Temp;Humidity;BMP_temperature;BMP_pressure;BME280_temperature;BME280_humidity;BME280_pressure;Samples;Min_cycle;Max_cycle;Signal;HPM_P1;HPM_P2
2022/12/04 00:01:13;;;;;;;16.90;10.33;;;;;;;;;;4989873;28;20944;-67
2022/12/04 00:03:39;;;;;;;19.10;10.80;;;;;;;;;;4991476;28;20433;-67
2022/12/04 00:06:06;;;;;;;14.07;9.50;;;;;;;;;;4991809;28;20786;-66
2022/12/04 00:08:32;;;;;;;14.13;9.23;;;;;;;;;;4991194;28;20440;-66
2022/12/04 00:10:58;;;;;;;16.70;9.57;;;;;;;;;;4991162;28;20422;-67
2022/12/04 00:13:24;;;;;;;12.93;8.83;;;;;;;;;;4991378;28;20449;-67
2022/12/04 00:15:51;;;;;;;16.87;10.43;;;;;;;;;;4991423;28;20266;-67
2022/12/04 00:18:16;;;;;;;13.63;9.97;;;;;;;;;;4991001;28;20425;-66
2022/12/04 00:20:42;;;;;;;14.23;9.57;;;;;;;;;;4991043;28;21051;-67
2022/12/04 00:23:08;;;;;;;18.90;11.03;;;;;;;;;;4991711;28;20790;-66
2022/12/04 00:25:34;;;;;;;24.10;12.63;;;;;;;;;;4991003;28;20486;-66
2022/12/04 00:28:00;;;;;;;17.50;11.30;;;;;;;;;;4991233;28;20479;-67
2022/12/04 00:30:27;;;;;;;15.90;10.40;;;;;;;;;;4990477;28;20440;-67
2022/12/04 00:32:53;;;;;;;18.50;11.40;;;;;;;;;;4991213;28;20437;-67
2022/12/04 00:35:18;;;;;;;12.17;9.20;;;;;;;;;;4990736;28;20538;-67
2022/12/04 00:37:44;;;;;;;15.50;9.77;;;;;;;;;;4991433;28;20440;-66
2022/12/04 00:40:11;;;;;;;17.57;11.17;;;;;;;;;;4990697;28;20445;-67
2022/12/04 00:42:37;;;;;;;17.53;10.90;;;;;;;;;;4990267;28;20498;-67
2022/12/04 00:45:03;;;;;;;12.40;9.70;;;;;;;;;;4989937;28;20456;-67
2022/12/04 00:47:29;;;;;;;16.17;11.30;;;;;;;;;;4990860;28;20540;-67
2022/12/04 00:49:55;;;;;;;11.93;9.20;;;;;;;;;;4990937;28;20549;-67
2022/12/04 00:52:21;;;;;;;11.87;9.30;;;;;;;;;;4990865;28;20447;-66
2022/12/04 00:54:47;;;;;;;14.33;9.40;;;;;;;;;;4990570;28;20488;-67
2022/12/04 00:57:13;;;;;;;13.37;9.03;;;;;;;;;;4988769;28;20457;-67
2022/12/04 00:59:39;;;;;;;15.80;9.90;;;;;;;;;;4990050;28;20441;-67
2022/12/04 01:02:05;;;;;;;16.20;10.40;;;;;;;;;;4990084;28;20425;-66
2022/12/04 01:04:31;;;;;;;13.30;9.77;;;;;;;;;;4990366;28;20844;-67
2022/12/04 01:06:57;;;;;;;13.83;10.47;;;;;;;;;;4991022;28;20946;-66
2022/12/04 01:09:23;;;;;;;13.17;9.53;;;;;;;;;;4990325;28;20460;-67
2022/12/04 01:11:49;;;;;;;11.80;9.73;;;;;;;;;;4989753;28;20448;-66
2022/12/04 01:14:15;;;;;;;12.57;9.17;;;;;;;;;;4989415;28;20480;-67
2022/12/04 01:16:41;;;;;;;11.20;9.00;;;;;;;;;;4990125;28;20499;-68
2022/12/04 01:19:11;;;;;;;9.50;8.50;;;;;;;;;;4990182;28;20433;-67
2022/12/04 01:21:37;;;;;;;12.33;8.43;;;;;;;;;;5005143;28;20485;-67
2022/12/04 01:24:03;;;;;;;12.87;9.03;;;;;;;;;;4990226;28;20862;-67
2022/12/04 01:26:29;;;;;;;12.47;9.00;;;;;;;;;;4989540;28;20432;-67
2022/12/04 01:28:55;;;;;;;10.80;8.23;;;;;;;;;;4989867;28;20432;-67
2022/12/04 01:31:21;;;;;;;9.47;7.90;;;;;;;;;;4989945;28;20448;-67
2022/12/04 01:33:48;;;;;;;10.80;8.27;;;;;;;;;;4989524;28;20491;-67
2022/12/04 01:36:16;;;;;;;10.57;8.43;;;;;;;;;;4990282;28;20436;-67
2022/12/04 01:38:42;;;;;;;10.10;7.20;;;;;;;;;;4989997;28;20431;-67
2022/12/04 01:41:09;;;;;;;12.40;8.03;;;;;;;;;;4989790;28;20441;-67
2022/12/04 01:43:35;;;;;;;10.03;7.60;;;;;;;;;;4989164;28;20460;-67
2022/12/04 01:46:02;;;;;;;9.85;8.85;;;;;;;;;;4988903;28;20526;-67
2022/12/04 01:48:30;;;;;;;8.40;7.50;;;;;;;;;;4989964;28;20232;-66
2022/12/04 01:51:00;;;;;;;12.47;7.57;;;;;;;;;;4989138;28;20433;-67
2022/12/04 01:53:28;;;;;;;8.13;7.43;;;;;;;;;;4989874;28;20437;-67
2022/12/04 01:55:55;;;;;;;7.73;6.57;;;;;;;;;;4990540;28;20933;-67
2022/12/04 01:58:22;;;;;;;9.57;7.83;;;;;;;;;;4989427;28;20940;-67
2022/12/04 02:00:51;;;;;;;7.67;6.77;;;;;;;;;;4989231;28;20443;-67
2022/12/04 02:03:18;;;;;;;8.10;7.30;;;;;;;;;;4990023;28;20524;-67
2022/12/04 02:05:44;;;;;;;10.00;7.20;;;;;;;;;;4989581;28;20443;-67
2022/12/04 02:08:10;;;;;;;8.60;7.53;;;;;;;;;;4989938;28;20515;-67
2022/12/04 02:10:54;;;;;;;9.20;8.30;;;;;;;;;;4989125;28;20999;-67
2022/12/04 02:13:26;;;;;;;9.03;7.70;;;;;;;;;;4991195;28;20440;-67
2022/12/04 02:16:18;;;;;;;9.77;8.07;;;;;;;;;;4993677;28;20510;-66
2022/12/04 02:18:56;;;;;;;9.80;7.63;;;;;;;;;;4991234;28;20519;-67
2022/12/04 02:21:28;;;;;;;11.43;7.90;;;;;;;;;;4992816;28;20506;-66
2022/12/04 02:24:12;;;;;;;8.27;7.33;;;;;;;;;;4993498;28;20436;-66
2022/12/04 02:26:55;;;;;;;11.50;7.87;;;;;;;;;;4992909;28;20439;-67
2022/12/04 02:29:40;;;;;;;8.67;7.80;;;;;;;;;;4993664;28;20436;-67
2022/12/04 02:32:18;;;;;;;8.13;7.40;;;;;;;;;;4992716;28;20844;-67
2022/12/04 02:34:54;;;;;;;7.70;6.87;;;;;;;;;;4993432;28;20487;-66
2022/12/04 02:37:27;;;;;;;9.27;7.20;;;;;;;;;;4993845;28;20439;-67
2022/12/04 02:39:55;;;;;;;8.37;7.47;;;;;;;;;;4993808;28;20456;-67
2022/12/04 02:42:28;;;;;;;8.03;6.70;;;;;;;;;;4992105;28;20425;-67
2022/12/04 02:44:59;;;;;;;7.70;6.97;;;;;;;;;;4993481;28;20433;-67
2022/12/04 02:47:25;;;;;;;10.47;8.07;;;;;;;;;;4993172;28;20539;-68
2022/12/04 02:49:55;;;;;;;13.13;8.83;;;;;;;;;;4991914;28;20444;-67
2022/12/04 02:52:24;;;;;;;10.97;8.57;;;;;;;;;;5006104;28;20844;-66
2022/12/04 02:54:54;;;;;;;9.80;7.90;;;;;;;;;;4991952;28;20578;-67
2022/12/04 02:57:22;;;;;;;12.97;8.83;;;;;;;;;;4991579;28;20477;-67
2022/12/04 02:59:49;;;;;;;13.10;8.70;;;;;;;;;;4991286;28;20532;-66
2022/12/04 03:02:18;;;;;;;12.40;8.83;;;;;;;;;;4990906;28;20429;-66
2022/12/04 03:04:49;;;;;;;11.10;8.67;;;;;;;;;;4991802;28;20846;-66
2022/12/04 03:07:18;;;;;;;13.57;8.20;;;;;;;;;;4991799;28;20459;-66
2022/12/04 03:09:46;;;;;;;10.20;8.40;;;;;;;;;;4991263;28;20440;-66
2022/12/04 03:12:21;;;;;;;11.67;10.37;;;;;;;;;;4990756;28;20521;-67
2022/12/04 03:15:07;;;;;;;9.47;8.57;;;;;;;;;;4991766;28;20491;-66
2022/12/04 03:17:41;;;;;;;18.07;8.90;;;;;;;;;;4991468;28;20428;-67
2022/12/04 03:20:11;;;;;;;14.10;9.87;;;;;;;;;;5006345;28;21218;-67
2022/12/04 03:22:39;;;;;;;9.80;8.90;;;;;;;;;;4990777;28;20441;-66
2022/12/04 03:25:06;;;;;;;14.03;9.53;;;;;;;;;;4990231;28;20481;-66
2022/12/04 03:27:37;;;;;;;11.47;9.30;;;;;;;;;;4991606;28;20451;-66
2022/12/04 03:30:07;;;;;;;13.13;9.67;;;;;;;;;;4991402;28;20523;-67
2022/12/04 03:32:45;;;;;;;13.40;9.53;;;;;;;;;;4991395;28;21056;-67
2022/12/04 03:35:20;;;;;;;12.77;8.83;;;;;;;;;;4990909;28;20484;-67
2022/12/04 03:37:49;;;;;;;13.40;9.13;;;;;;;;;;4990836;28;20436;-67
2022/12/04 03:40:18;;;;;;;13.27;9.87;;;;;;;;;;4990833;28;20964;-67
2022/12/04 03:42:47;;;;;;;10.93;8.20;;;;;;;;;;4990943;28;20452;-67
2022/12/04 03:45:21;;;;;;;10.30;8.77;;;;;;;;;;5006126;28;20429;-67
2022/12/04 03:47:53;;;;;;;12.40;9.13;;;;;;;;;;4954990;28;1058413;-67
2022/12/04 03:50:25;;;;;;;12.37;9.00;;;;;;;;;;4991267;28;20198;-67
2022/12/04 03:53:04;;;;;;;11.07;8.90;;;;;;;;;;4992460;28;20520;-67
2022/12/04 03:55:34;;;;;;;13.30;8.97;;;;;;;;;;4992075;28;20531;-66
2022/12/04 03:58:03;;;;;;;13.90;8.60;;;;;;;;;;4991852;28;20429;-66
2022/12/04 04:00:30;;;;;;;12.67;9.13;;;;;;;;;;4990328;28;20444;-68
2022/12/04 04:03:03;;;;;;;14.10;10.67;;;;;;;;;;4991653;28;20940;-66
2022/12/04 04:05:30;;;;;;;10.40;8.03;;;;;;;;;;4990473;28;20483;-66
2022/12/04 04:08:24;;;;;;;10.83;8.30;;;;;;;;;;4991807;28;20499;-66
2022/12/04 04:10:43;;;;;;;8.80;7.70;;;;;;;;;;4990350;28;20421;-66
2022/12/04 04:24:29;;;;;;;11.27;9.37;;;;;;;;;;4990677;28;20564;-66
2022/12/04 04:26:55;;;;;;;10.53;9.23;;;;;;;;;;5006264;28;20808;-66
2022/12/04 04:29:21;;;;;;;10.10;8.93;;;;;;;;;;4991622;28;20441;-66
2022/12/04 04:32:06;;;;;;;9.30;7.97;;;;;;;;;;4990848;28;20507;-66
2022/12/04 04:34:51;;;;;;;11.20;8.37;;;;;;;;;;4990344;28;20481;-69
2022/12/04 04:37:26;;;;;;;12.10;8.43;;;;;;;;;;4990740;28;20835;-66
2022/12/04 04:39:55;;;;;;;8.07;7.27;;;;;;;;;;4991396;28;20428;-67
2022/12/04 04:42:24;;;;;;;9.20;8.20;;;;;;;;;;4990598;28;20437;-66
2022/12/04 04:44:59;;;;;;;15.73;9.23;;;;;;;;;;4990939;28;20519;-67
2022/12/04 04:47:32;;;;;;;12.73;8.27;;;;;;;;;;4990383;28;20492;-66
2022/12/04 04:49:58;;;;;;;11.50;8.27;;;;;;;;;;5004976;28;20441;-67
2022/12/04 04:52:24;;;;;;;9.93;8.77;;;;;;;;;;4991323;28;20925;-67
2022/12/04 04:54:50;;;;;;;10.60;8.33;;;;;;;;;;4990169;28;20650;-66
2022/12/04 04:57:30;;;;;;;10.17;8.37;;;;;;;;;;4990747;28;21986;-66
2022/12/04 04:59:56;;;;;;;10.20;8.03;;;;;;;;;;5005247;28;20440;-67
2022/12/04 05:02:24;;;;;;;11.93;8.77;;;;;;;;;;4990500;28;20445;-67
2022/12/04 05:04:50;;;;;;;10.90;9.17;;;;;;;;;;4990614;28;20429;-66
2022/12/04 05:07:16;;;;;;;11.30;8.70;;;;;;;;;;4990528;28;20957;-66
2022/12/04 05:09:42;;;;;;;7.97;7.17;;;;;;;;;;4990301;28;21048;-66
2022/12/04 05:12:08;;;;;;;12.40;9.30;;;;;;;;;;4989722;28;20451;-67
2022/12/04 05:14:34;;;;;;;9.60;8.40;;;;;;;;;;4990349;28;20987;-67
2022/12/04 05:17:00;;;;;;;10.07;8.50;;;;;;;;;;5005708;28;20436;-66
2022/12/04 05:22:12;;;;;;;9.43;7.57;;;;;;;;;;4990085;28;20886;-67
2022/12/04 05:24:38;;;;;;;9.20;7.50;;;;;;;;;;4990491;28;20499;-66
2022/12/04 05:27:03;;;;;;;9.37;8.33;;;;;;;;;;4990393;28;20433;-67
2022/12/04 05:29:29;;;;;;;14.00;8.63;;;;;;;;;;4990112;28;20440;-66
2022/12/04 05:31:55;;;;;;;9.60;8.30;;;;;;;;;;4989805;28;20492;-66
2022/12/04 05:34:21;;;;;;;14.20;8.13;;;;;;;;;;4990067;28;20465;-66
2022/12/04 05:36:47;;;;;;;5.10;4.60;;;;;;;;;;4989955;28;21302;-66
2022/12/04 05:39:13;;;;;;;8.73;7.70;;;;;;;;;;4989959;28;20516;-66
2022/12/04 05:41:39;;;;;;;8.47;7.57;;;;;;;;;;4989076;28;20475;-67
2022/12/04 05:44:05;;;;;;;10.33;8.00;;;;;;;;;;4990141;28;20461;-66
2022/12/04 05:46:31;;;;;;;10.70;8.30;;;;;;;;;;4989465;28;20503;-66
2022/12/04 05:48:57;;;;;;;11.17;8.27;;;;;;;;;;4990078;28;20441;-66
2022/12/04 05:51:23;;;;;;;10.80;8.33;;;;;;;;;;4988631;28;20496;-66
2022/12/04 05:53:50;;;;;;;12.40;8.60;;;;;;;;;;4990235;28;20847;-66
2022/12/04 05:56:16;;;;;;;8.90;7.20;;;;;;;;;;4989270;28;20793;-67
2022/12/04 05:58:42;;;;;;;9.33;8.00;;;;;;;;;;4989961;28;20448;-66
2022/12/04 06:01:12;;;;;;;7.13;6.43;;;;;;;;;;4988973;28;20909;-67
2022/12/04 06:03:38;;;;;;;12.27;8.53;;;;;;;;;;4990089;28;20941;-66
2022/12/04 06:06:04;;;;;;;9.90;7.90;;;;;;;;;;4989452;28;20437;-67
2022/12/04 06:08:31;;;;;;;10.70;8.47;;;;;;;;;;4989159;28;20437;-67
2022/12/04 06:10:57;;;;;;;9.60;7.13;;;;;;;;;;4989398;28;20425;-66
2022/12/04 06:13:23;;;;;;;10.17;7.40;;;;;;;;;;4989215;28;21060;-66
2022/12/04 06:15:49;;;;;;;9.00;8.10;;;;;;;;;;4989392;28;20492;-67
2022/12/04 06:18:15;;;;;;;10.70;7.30;;;;;;;;;;4989036;28;20514;-67
2022/12/04 06:20:41;;;;;;;9.40;8.10;;;;;;;;;;4989332;28;20445;-66
2022/12/04 06:23:07;;;;;;;9.57;8.60;;;;;;;;;;4989239;28;20431;-67
2022/12/04 06:25:34;;;;;;;10.03;7.83;;;;;;;;;;4989039;28;20433;-66
2022/12/04 06:27:59;;;;;;;11.53;7.20;;;;;;;;;;4989106;28;20437;-66
2022/12/04 06:30:25;;;;;;;8.10;7.30;;;;;;;;;;4989164;28;20907;-66
2022/12/04 06:32:51;;;;;;;10.40;7.93;;;;;;;;;;5005169;28;20441;-66
2022/12/04 06:35:17;;;;;;;9.80;8.53;;;;;;;;;;4989202;28;20563;-66
2022/12/04 06:37:43;;;;;;;10.10;7.10;;;;;;;;;;4989085;28;20525;-66
2022/12/04 06:40:09;;;;;;;10.47;8.43;;;;;;;;;;4989388;28;20504;-66
2022/12/04 06:42:35;;;;;;;8.37;7.57;;;;;;;;;;4989503;28;20487;-66
2022/12/04 06:45:01;;;;;;;11.43;9.30;;;;;;;;;;4989315;28;20453;-66
2022/12/04 06:47:27;;;;;;;9.87;8.13;;;;;;;;;;4988516;28;20482;-66
2022/12/04 06:49:53;;;;;;;14.17;8.53;;;;;;;;;;4989357;28;20929;-66
2022/12/04 06:52:19;;;;;;;10.03;8.40;;;;;;;;;;4989282;28;20456;-66
2022/12/04 06:54:45;;;;;;;8.83;7.10;;;;;;;;;;4988827;28;20481;-66
2022/12/04 06:57:11;;;;;;;8.50;7.70;;;;;;;;;;4989094;28;20482;-67
2022/12/04 06:59:37;;;;;;;10.80;7.67;;;;;;;;;;4992158;28;20440;-66
2022/12/04 07:02:03;;;;;;;7.37;6.70;;;;;;;;;;4991833;28;20433;-66
2022/12/04 07:04:29;;;;;;;7.50;6.97;;;;;;;;;;4993462;28;20445;-67
2022/12/04 07:06:55;;;;;;;10.30;8.40;;;;;;;;;;4993541;28;20598;-66
2022/12/04 07:09:22;;;;;;;8.37;7.43;;;;;;;;;;4992356;28;20437;-66
2022/12/04 07:11:47;;;;;;;9.33;7.13;;;;;;;;;;5006480;28;20848;-66
2022/12/04 07:14:14;;;;;;;11.00;8.37;;;;;;;;;;4991931;28;20528;-66
2022/12/04 07:16:40;;;;;;;12.50;8.23;;;;;;;;;;4991819;28;20479;-65
2022/12/04 07:19:07;;;;;;;9.77;8.27;;;;;;;;;;4989521;28;20429;-66
2022/12/04 07:21:33;;;;;;;10.07;8.37;;;;;;;;;;4990941;28;20444;-65
2022/12/04 07:24:00;;;;;;;9.37;8.30;;;;;;;;;;4991295;28;20441;-68
2022/12/04 07:26:27;;;;;;;14.43;10.50;;;;;;;;;;4991374;28;20445;-66
2022/12/04 07:28:54;;;;;;;11.80;9.43;;;;;;;;;;4991130;28;20441;-66
2022/12/04 07:31:21;;;;;;;14.73;9.30;;;;;;;;;;4990910;28;20835;-66
2022/12/04 07:33:48;;;;;;;10.50;8.73;;;;;;;;;;4991639;28;21004;-66
2022/12/04 07:36:15;;;;;;;7.97;6.77;;;;;;;;;;4992038;28;20495;-67
2022/12/04 07:38:41;;;;;;;7.77;6.97;;;;;;;;;;4981679;28;20488;-66
2022/12/04 07:41:08;;;;;;;9.07;8.17;;;;;;;;;;4989727;28;20933;-67
2022/12/04 07:43:33;;;;;;;8.60;7.80;;;;;;;;;;4991136;28;20955;-66
2022/12/04 07:46:04;;;;;;;16.60;8.23;;;;;;;;;;5006668;28;20433;-67
2022/12/04 07:48:30;;;;;;;9.23;7.87;;;;;;;;;;4991545;28;20504;-66
2022/12/04 07:51:05;;;;;;;15.20;10.77;;;;;;;;;;4991326;28;20437;-66
2022/12/04 07:53:32;;;;;;;14.30;10.47;;;;;;;;;;4991116;28;20433;-66
2022/12/04 07:55:58;;;;;;;9.63;8.63;;;;;;;;;;4991250;28;20499;-67
2022/12/04 07:58:24;;;;;;;12.83;9.13;;;;;;;;;;4991772;28;20913;-66
2022/12/04 08:00:50;;;;;;;12.13;8.47;;;;;;;;;;4990918;28;20437;-66
2022/12/04 08:03:16;;;;;;;11.03;9.90;;;;;;;;;;4991507;28;20424;-66
2022/12/04 08:05:42;;;;;;;13.73;9.67;;;;;;;;;;4991599;28;20944;-67
2022/12/04 08:08:08;;;;;;;10.73;8.93;;;;;;;;;;4986476;28;20802;-66
2022/12/04 08:10:34;;;;;;;13.57;9.23;;;;;;;;;;4989196;28;20782;-66
2022/12/04 08:13:00;;;;;;;17.67;10.93;;;;;;;;;;4990780;28;20562;-66
2022/12/04 08:15:26;;;;;;;13.00;9.50;;;;;;;;;;4990989;28;20472;-66
2022/12/04 08:17:52;;;;;;;17.90;10.60;;;;;;;;;;4990749;28;20945;-66
2022/12/04 08:20:18;;;;;;;14.07;10.03;;;;;;;;;;4988853;28;20908;-66
2022/12/04 08:22:43;;;;;;;13.43;10.53;;;;;;;;;;4990587;28;20793;-66
2022/12/04 08:25:10;;;;;;;13.30;9.20;;;;;;;;;;4991434;28;20532;-67
2022/12/04 08:27:36;;;;;;;11.80;9.13;;;;;;;;;;4989814;28;20437;-66
2022/12/04 08:30:02;;;;;;;13.77;10.60;;;;;;;;;;4990573;28;20479;-66
2022/12/04 08:32:28;;;;;;;14.97;9.90;;;;;;;;;;4990547;28;20429;-66
2022/12/04 08:34:53;;;;;;;13.53;8.57;;;;;;;;;;4988586;28;20468;-66
2022/12/04 08:37:19;;;;;;;11.57;8.93;;;;;;;;;;4991068;28;20917;-66
2022/12/04 08:39:45;;;;;;;13.13;10.40;;;;;;;;;;4990466;28;20437;-66
2022/12/04 08:42:11;;;;;;;16.50;11.57;;;;;;;;;;4990554;28;20432;-66
2022/12/04 08:44:37;;;;;;;12.40;9.67;;;;;;;;;;4990219;28;20433;-66
2022/12/04 08:47:03;;;;;;;13.13;10.27;;;;;;;;;;4990231;28;21029;-66
2022/12/04 08:49:29;;;;;;;14.27;12.77;;;;;;;;;;4989431;28;21046;-66
2022/12/04 08:51:55;;;;;;;15.90;9.93;;;;;;;;;;4988854;28;20425;-66
2022/12/04 08:54:21;;;;;;;13.20;9.63;;;;;;;;;;4990008;28;20489;-66
2022/12/04 08:56:47;;;;;;;12.90;9.43;;;;;;;;;;4989779;28;20441;-66
2022/12/04 08:59:13;;;;;;;14.23;9.90;;;;;;;;;;5004322;28;20437;-66
2022/12/04 09:01:39;;;;;;;15.80;10.33;;;;;;;;;;5003261;28;20968;-66
2022/12/04 09:04:05;;;;;;;13.10;9.60;;;;;;;;;;4989506;28;20479;-68
2022/12/04 09:06:31;;;;;;;15.33;10.43;;;;;;;;;;4990259;28;20443;-67
2022/12/04 09:08:57;;;;;;;40.60;22.40;;;;;;;;;;4990131;28;20437;-66
2022/12/04 09:11:25;;;;;;;28.97;16.53;;;;;;;;;;4989280;28;20436;-66
2022/12/04 09:13:51;;;;;;;34.33;20.60;;;;;;;;;;4989710;28;20777;-67
2022/12/04 09:16:21;;;;;;;15.13;9.70;;;;;;;;;;4989769;28;20537;-66
2022/12/04 09:18:48;;;;;;;12.73;11.20;;;;;;;;;;4989760;28;20503;-66
2022/12/04 09:21:15;;;;;;;15.30;10.70;;;;;;;;;;4988056;28;20528;-65
2022/12/04 09:23:43;;;;;;;14.00;10.63;;;;;;;;;;4988967;28;20476;-66
2022/12/04 09:26:22;;;;;;;12.80;10.30;;;;;;;;;;4989959;28;20429;-66
2022/12/04 09:28:49;;;;;;;13.20;11.00;;;;;;;;;;4989375;28;20979;-67
2022/12/04 09:31:15;;;;;;;14.73;10.73;;;;;;;;;;4989431;28;20429;-67
2022/12/04 09:33:41;;;;;;;14.80;9.97;;;;;;;;;;4989385;28;20440;-66
2022/12/04 09:36:07;;;;;;;13.83;10.40;;;;;;;;;;4987896;28;20492;-66
2022/12/04 09:38:35;;;;;;;13.27;9.73;;;;;;;;;;4988171;28;20531;-66
2022/12/04 09:41:19;;;;;;;13.87;10.87;;;;;;;;;;5003680;28;20429;-66
2022/12/04 09:44:03;;;;;;;19.43;11.97;;;;;;;;;;4989071;28;20564;-66
2022/12/04 09:46:35;;;;;;;14.33;10.23;;;;;;;;;;4989216;28;20443;-65
2022/12/04 09:49:04;;;;;;;18.97;11.87;;;;;;;;;;4988591;28;20441;-67
2022/12/04 09:51:31;;;;;;;12.60;9.57;;;;;;;;;;4988369;28;20510;-66
2022/12/04 09:54:03;;;;;;;23.47;14.90;;;;;;;;;;4989797;28;20435;-66
2022/12/04 09:56:30;;;;;;;38.77;17.93;;;;;;;;;;4988156;28;20445;-66
2022/12/04 09:59:06;;;;;;;16.60;11.33;;;;;;;;;;4988937;28;20424;-66
2022/12/04 10:01:49;;;;;;;15.63;11.60;;;;;;;;;;4987238;28;20471;-67
2022/12/04 10:04:16;;;;;;;22.23;15.20;;;;;;;;;;4987129;28;21152;-67
2022/12/04 10:06:54;;;;;;;15.20;11.67;;;;;;;;;;4988763;28;20500;-67
2022/12/04 10:09:40;;;;;;;12.40;9.07;;;;;;;;;;4988771;28;21067;-66
2022/12/04 10:12:18;;;;;;;15.27;10.70;;;;;;;;;;4957022;28;20941;-66
2022/12/04 10:14:49;;;;;;;14.87;9.90;;;;;;;;;;4987360;28;20958;-67
2022/12/04 10:17:15;;;;;;;12.90;9.50;;;;;;;;;;4989641;28;20994;-67
2022/12/04 10:19:50;;;;;;;12.03;9.27;;;;;;;;;;4988600;28;20473;-66
2022/12/04 10:22:25;;;;;;;12.50;10.33;;;;;;;;;;4988675;28;20527;-67
2022/12/04 10:25:00;;;;;;;12.50;10.07;;;;;;;;;;4989699;28;20444;-67
2022/12/04 10:27:29;;;;;;;13.17;9.40;;;;;;;;;;4989485;28;20432;-66
2022/12/04 10:29:57;;;;;;;12.10;10.00;;;;;;;;;;4989101;28;20438;-67
2022/12/04 10:32:28;;;;;;;16.73;11.90;;;;;;;;;;4989241;28;20444;-66
2022/12/04 10:34:56;;;;;;;24.67;14.20;;;;;;;;;;4993852;28;20499;-66
2022/12/04 10:37:22;;;;;;;12.60;10.10;;;;;;;;;;4993782;28;20421;-66
2022/12/04 10:39:55;;;;;;;12.60;10.30;;;;;;;;;;4992777;28;20449;-66
2022/12/04 10:42:25;;;;;;;22.50;12.57;;;;;;;;;;4992639;28;20520;-67
2022/12/04 10:44:51;;;;;;;20.93;14.07;;;;;;;;;;4992624;28;20453;-67
2022/12/04 10:47:17;;;;;;;14.03;12.07;;;;;;;;;;4993609;28;20991;-67
2022/12/04 10:49:43;;;;;;;22.63;10.57;;;;;;;;;;4990500;28;20421;-67
2022/12/04 10:52:14;;;;;;;10.77;9.63;;;;;;;;;;4990997;28;20952;-67
2022/12/04 10:54:47;;;;;;;13.80;10.30;;;;;;;;;;4992531;28;20500;-67
2022/12/04 10:57:13;;;;;;;9.70;8.77;;;;;;;;;;4992874;28;20433;-67
2022/12/04 10:59:59;;;;;;;10.03;8.73;;;;;;;;;;4992157;28;21045;-67
2022/12/04 11:02:27;;;;;;;16.97;11.93;;;;;;;;;;5007990;28;20516;-67
2022/12/04 11:04:55;;;;;;;12.57;9.17;;;;;;;;;;4991991;28;20448;-67
2022/12/04 11:07:23;;;;;;;16.10;11.63;;;;;;;;;;4992464;28;20933;-67
2022/12/04 11:09:54;;;;;;;13.70;10.90;;;;;;;;;;4992408;28;20859;-67
2022/12/04 11:12:21;;;;;;;11.27;9.20;;;;;;;;;;4992454;28;20568;-67
2022/12/04 11:14:47;;;;;;;13.40;10.13;;;;;;;;;;4991908;28;20487;-67
2022/12/04 11:17:15;;;;;;;11.10;9.47;;;;;;;;;;4990806;28;20425;-67
2022/12/04 11:19:41;;;;;;;10.40;8.80;;;;;;;;;;4990653;28;20451;-67
2022/12/04 11:22:15;;;;;;;16.17;10.40;;;;;;;;;;4991714;28;20433;-68
2022/12/04 11:24:42;;;;;;;11.50;8.83;;;;;;;;;;4993125;28;20426;-68
2022/12/04 11:27:16;;;;;;;14.97;10.50;;;;;;;;;;4992459;28;20531;-67
2022/12/04 11:29:44;;;;;;;13.23;9.17;;;;;;;;;;4991938;28;20431;-68
2022/12/04 11:32:27;;;;;;;13.83;10.23;;;;;;;;;;4992440;28;20480;-67
2022/12/04 11:34:55;;;;;;;13.43;10.30;;;;;;;;;;4992287;28;20550;-67
2022/12/04 11:37:27;;;;;;;12.80;9.73;;;;;;;;;;4992657;28;20445;-68
2022/12/04 11:39:53;;;;;;;16.30;10.30;;;;;;;;;;4991429;28;20433;-67
2022/12/04 11:42:23;;;;;;;12.17;10.20;;;;;;;;;;4991973;28;20749;-67
2022/12/04 11:44:54;;;;;;;16.10;10.27;;;;;;;;;;4991315;28;20541;-68
2022/12/04 11:47:21;;;;;;;15.03;9.67;;;;;;;;;;4991933;28;20548;-68
2022/12/04 11:50:00;;;;;;;15.23;11.43;;;;;;;;;;4990270;28;20443;-69
2022/12/04 11:52:36;;;;;;;16.17;11.40;;;;;;;;;;4990105;28;20456;-68
2022/12/04 11:55:06;;;;;;;18.53;11.10;;;;;;;;;;4990487;28;20830;-68
2022/12/04 11:57:51;;;;;;;18.23;11.20;;;;;;;;;;4990400;28;20445;-68
2022/12/04 12:00:19;;;;;;;20.13;12.40;;;;;;;;;;4991400;28;20515;-68
2022/12/04 12:02:58;;;;;;;20.00;14.20;;;;;;;;;;4991102;28;20440;-67
2022/12/04 12:05:35;;;;;;;16.30;12.47;;;;;;;;;;4992268;28;20220;-67
2022/12/04 12:08:17;;;;;;;12.30;10.67;;;;;;;;;;4987457;28;20441;-68
2022/12/04 12:10:56;;;;;;;11.60;10.33;;;;;;;;;;4990700;28;20428;-67
2022/12/04 12:13:22;;;;;;;14.87;10.57;;;;;;;;;;4991677;28;20468;-68
2022/12/04 12:16:08;;;;;;;19.97;12.50;;;;;;;;;;4991648;28;20516;-67
2022/12/04 12:18:34;;;;;;;14.63;12.00;;;;;;;;;;4989557;28;20477;-68
2022/12/04 12:21:17;;;;;;;16.63;11.40;;;;;;;;;;4990870;28;20464;-67
2022/12/04 12:24:02;;;;;;;22.20;12.87;;;;;;;;;;4989405;28;20944;-67
2022/12/04 12:26:40;;;;;;;17.33;11.40;;;;;;;;;;5005611;28;20511;-67
2022/12/04 12:29:12;;;;;;;14.20;10.83;;;;;;;;;;4990713;28;20437;-68
2022/12/04 12:31:57;;;;;;;16.43;11.60;;;;;;;;;;4990190;28;20508;-68
2022/12/04 12:34:31;;;;;;;17.87;12.87;;;;;;;;;;4990409;28;20896;-67
2022/12/04 12:36:58;;;;;;;19.13;10.10;;;;;;;;;;4990973;28;20441;-67
2022/12/04 12:39:26;;;;;;;16.40;11.07;;;;;;;;;;4990417;28;20425;-67
2022/12/04 12:41:52;;;;;;;19.67;11.90;;;;;;;;;;4988785;28;20453;-67
2022/12/04 12:44:40;;;;;;;15.10;11.37;;;;;;;;;;4990526;28;20440;-67
2022/12/04 12:47:12;;;;;;;19.30;11.00;;;;;;;;;;4989951;28;20487;-67
2022/12/04 12:49:57;;;;;;;16.10;11.00;;;;;;;;;;4989096;28;20421;-67
2022/12/04 12:52:31;;;;;;;17.00;11.10;;;;;;;;;;4990637;28;20444;-68
2022/12/04 12:55:03;;;;;;;17.23;11.13;;;;;;;;;;4989939;28;20490;-68
2022/12/04 12:57:40;;;;;;;15.63;11.50;;;;;;;;;;4990574;28;20425;-67
2022/12/04 13:00:13;;;;;;;16.17;10.23;;;;;;;;;;4989608;28;20428;-67
2022/12/04 13:02:48;;;;;;;17.20;11.47;;;;;;;;;;4989898;28;20437;-68
2022/12/04 13:05:17;;;;;;;21.83;12.03;;;;;;;;;;4989538;28;20420;-67
2022/12/04 13:08:00;;;;;;;16.97;10.80;;;;;;;;;;4990485;28;20441;-67
2022/12/04 13:10:39;;;;;;;18.17;10.93;;;;;;;;;;4989606;28;20520;-67
2022/12/04 13:13:07;;;;;;;15.63;12.17;;;;;;;;;;4989894;28;20820;-68
2022/12/04 13:15:38;;;;;;;16.80;10.93;;;;;;;;;;4990019;28;20481;-67
2022/12/04 13:18:06;;;;;;;18.50;12.83;;;;;;;;;;4989967;28;20956;-68
2022/12/04 13:20:35;;;;;;;17.27;11.97;;;;;;;;;;4990571;28;20910;-67
2022/12/04 13:23:16;;;;;;;19.70;11.83;;;;;;;;;;4990622;28;20433;-67
2022/12/04 13:26:01;;;;;;;19.97;11.90;;;;;;;;;;4990486;28;21035;-67
2022/12/04 13:28:35;;;;;;;21.53;12.70;;;;;;;;;;4990049;28;20475;-67
2022/12/04 13:31:07;;;;;;;16.47;10.77;;;;;;;;;;4989866;28;20934;-68
2022/12/04 13:33:59;;;;;;;19.60;12.87;;;;;;;;;;4990420;28;20433;-68
2022/12/04 13:36:28;;;;;;;21.93;11.87;;;;;;;;;;4989566;28;20449;-68
2022/12/04 13:39:23;;;;;;;20.23;13.30;;;;;;;;;;4989293;28;20433;-67
2022/12/04 13:41:57;;;;;;;20.60;11.70;;;;;;;;;;4989225;28;20503;-67
2022/12/04 13:44:25;;;;;;;24.67;11.90;;;;;;;;;;4990417;28;20516;-68
2022/12/04 13:46:51;;;;;;;16.97;11.53;;;;;;;;;;4990445;28;20522;-68
2022/12/04 13:49:16;;;;;;;17.27;10.20;;;;;;;;;;4990304;28;20922;-68
2022/12/04 13:51:44;;;;;;;14.83;10.47;;;;;;;;;;4989912;28;20437;-68
2022/12/04 13:54:13;;;;;;;17.03;11.97;;;;;;;;;;4988850;28;20560;-67
2022/12/04 13:56:40;;;;;;;20.20;12.90;;;;;;;;;;4988198;28;20445;-67
2022/12/04 13:59:25;;;;;;;24.80;13.40;;;;;;;;;;4989560;28;20433;-68
2022/12/04 14:01:52;;;;;;;22.00;13.90;;;;;;;;;;4989875;28;20835;-68
2022/12/04 14:04:43;;;;;;;18.23;12.07;;;;;;;;;;4989453;28;20417;-68
2022/12/04 14:07:23;;;;;;;19.33;12.93;;;;;;;;;;4973473;28;20503;-67
2022/12/04 14:09:52;;;;;;;23.47;14.90;;;;;;;;;;4993025;28;20812;-68
2022/12/04 14:12:18;;;;;;;19.03;13.40;;;;;;;;;;4993018;28;20617;-67
2022/12/04 14:14:44;;;;;;;15.50;12.17;;;;;;;;;;4994040;28;21018;-67
2022/12/04 14:17:24;;;;;;;19.97;12.60;;;;;;;;;;4994351;28;20433;-67
2022/12/04 14:19:56;;;;;;;20.97;12.40;;;;;;;;;;4992667;28;20440;-67
2022/12/04 14:22:34;;;;;;;23.00;13.90;;;;;;;;;;4993761;28;20437;-67
2022/12/04 14:25:06;;;;;;;16.90;12.80;;;;;;;;;;4993720;28;20440;-67
2022/12/04 14:27:42;;;;;;;23.77;14.47;;;;;;;;;;4994035;28;20433;-67
2022/12/04 14:30:18;;;;;;;18.50;11.90;;;;;;;;;;4992001;28;20476;-67
2022/12/04 14:32:46;;;;;;;17.20;12.30;;;;;;;;;;4992745;28;20432;-67
2022/12/04 14:35:25;;;;;;;21.67;13.27;;;;;;;;;;4993704;28;20493;-67
2022/12/04 14:37:51;;;;;;;14.67;11.40;;;;;;;;;;5007958;28;20436;-67
2022/12/04 14:40:20;;;;;;;18.47;13.10;;;;;;;;;;4992178;28;20445;-68
2022/12/04 14:42:47;;;;;;;20.37;12.70;;;;;;;;;;4994045;28;20836;-68
2022/12/04 14:45:32;;;;;;;20.70;12.33;;;;;;;;;;4992290;28;20495;-68
2022/12/04 14:48:06;;;;;;;15.50;12.10;;;;;;;;;;4992169;28;20471;-68
2022/12/04 14:50:53;;;;;;;19.17;12.40;;;;;;;;;;4993088;28;20436;-67
2022/12/04 14:53:25;;;;;;;13.60;10.97;;;;;;;;;;4971889;28;20424;-68
2022/12/04 14:55:55;;;;;;;20.10;12.57;;;;;;;;;;4991945;28;20480;-67